sensor_id;sensor_type;location;lat;lon;timestamp;P1;durP1;ratioP1;P2;durP2;ratioP2
6832;SDS011;3454;42.654;23.378;2022-10-19T00:01:07;4.40;;;2.90;;
6832;SDS011;3454;42.654;23.378;2022-10-19T00:03:36;4.53;;;2.77;;
6832;SDS011;3454;42.654;23.378;2022-10-19T00:08:49;9.80;;;3.77;;
6832;SDS011;3454;42.654;23.378;2022-10-19T00:11:15;3.60;;;3.00;;
6832;SDS011;3454;42.654;23.378;2022-10-19T00:13:41;5.40;;;3.67;;
6832;SDS011;3454;42.654;23.378;2022-10-19T00:16:13;5.40;;;3.50;;
6832;SDS011;3454;42.654;23.378;2022-10-19T00:18:40;9.20;;;3.57;;
6832;SDS011;3454;42.654;23.378;2022-10-19T00:21:10;4.43;;;4.00;;
6832;SDS011;3454;42.654;23.378;2022-10-19T00:23:38;6.67;;;4.13;;
6832;SDS011;3454;42.654;23.378;2022-10-19T00:26:04;6.97;;;3.93;;
6832;SDS011;3454;42.654;23.378;2022-10-19T00:28:30;5.13;;;3.33;;
6832;SDS011;3454;42.654;23.378;2022-10-19T00:30:55;5.27;;;3.80;;
6832;SDS011;3454;42.654;23.378;2022-10-19T00:33:21;4.40;;;3.43;;
6832;SDS011;3454;42.654;23.378;2022-10-19T00:35:50;4.60;;;3.43;;
6832;SDS011;3454;42.654;23.378;2022-10-19T00:38:17;5.67;;;3.90;;
6832;SDS011;3454;42.654;23.378;2022-10-19T00:40:44;8.40;;;4.33;;
6832;SDS011;3454;42.654;23.378;2022-10-19T00:43:14;6.27;;;4.20;;
6832;SDS011;3454;42.654;23.378;2022-10-19T00:45:43;5.47;;;3.77;;
6832;SDS011;3454;42.654;23.378;2022-10-19T00:48:08;7.60;;;4.07;;
6832;SDS011;3454;42.654;23.378;2022-10-19T00:50:36;8.30;;;4.43;;
6832;SDS011;3454;42.654;23.378;2022-10-19T00:53:02;7.17;;;3.87;;
6832;SDS011;3454;42.654;23.378;2022-10-19T00:55:27;7.20;;;4.50;;
6832;SDS011;3454;42.654;23.378;2022-10-19T00:57:54;10.83;;;4.30;;
6832;SDS011;3454;42.654;23.378;2022-10-19T01:00:20;4.67;;;3.77;;
6832;SDS011;3454;42.654;23.378;2022-10-19T01:02:45;4.57;;;3.60;;
6832;SDS011;3454;42.654;23.378;2022-10-19T01:05:11;5.87;;;3.87;;
6832;SDS011;3454;42.654;23.378;2022-10-19T01:07:38;6.17;;;4.17;;
6832;SDS011;3454;42.654;23.378;2022-10-19T01:10:04;4.63;;;3.57;;
6832;SDS011;3454;42.654;23.378;2022-10-19T01:31:29;7.10;;;3.37;;
6832;SDS011;3454;42.654;23.378;2022-10-19T01:36:44;4.10;;;3.60;;
6832;SDS011;3454;42.654;23.378;2022-10-19T01:39:19;5.53;;;3.70;;
6832;SDS011;3454;42.654;23.378;2022-10-19T01:41:59;5.07;;;3.27;;
6832;SDS011;3454;42.654;23.378;2022-10-19T01:47:04;7.03;;;3.30;;
6832;SDS011;3454;42.654;23.378;2022-10-19T01:49:41;3.77;;;3.10;;
6832;SDS011;3454;42.654;23.378;2022-10-19T01:52:12;5.43;;;3.10;;
6832;SDS011;3454;42.654;23.378;2022-10-19T01:54:43;4.77;;;2.80;;
6832;SDS011;3454;42.654;23.378;2022-10-19T01:57:12;5.03;;;3.03;;
6832;SDS011;3454;42.654;23.378;2022-10-19T01:59:41;7.03;;;4.47;;
6832;SDS011;3454;42.654;23.378;2022-10-19T02:02:08;5.90;;;3.40;;
6832;SDS011;3454;42.654;23.378;2022-10-19T02:04:38;5.40;;;3.73;;
6832;SDS011;3454;42.654;23.378;2022-10-19T02:07:04;7.40;;;3.67;;
6832;SDS011;3454;42.654;23.378;2022-10-19T02:09:32;4.93;;;3.70;;
6832;SDS011;3454;42.654;23.378;2022-10-19T02:11:58;6.77;;;3.73;;
6832;SDS011;3454;42.654;23.378;2022-10-19T02:14:31;5.30;;;3.80;;
6832;SDS011;3454;42.654;23.378;2022-10-19T02:17:10;5.23;;;3.47;;
6832;SDS011;3454;42.654;23.378;2022-10-19T02:19:38;5.80;;;3.50;;
6832;SDS011;3454;42.654;23.378;2022-10-19T02:22:05;6.77;;;2.87;;
6832;SDS011;3454;42.654;23.378;2022-10-19T02:24:31;5.93;;;3.10;;
6832;SDS011;3454;42.654;23.378;2022-10-19T02:26:56;4.20;;;2.80;;
6832;SDS011;3454;42.654;23.378;2022-10-19T02:29:24;4.77;;;3.37;;
6832;SDS011;3454;42.654;23.378;2022-10-19T02:31:50;4.47;;;2.83;;
6832;SDS011;3454;42.654;23.378;2022-10-19T02:34:16;8.47;;;3.23;;
6832;SDS011;3454;42.654;23.378;2022-10-19T02:36:41;4.80;;;3.27;;
6832;SDS011;3454;42.654;23.378;2022-10-19T02:39:07;4.67;;;2.90;;
6832;SDS011;3454;42.654;23.378;2022-10-19T02:41:35;6.00;;;3.43;;
6832;SDS011;3454;42.654;23.378;2022-10-19T02:44:14;7.77;;;3.13;;
6832;SDS011;3454;42.654;23.378;2022-10-19T02:46:57;3.60;;;2.73;;
6832;SDS011;3454;42.654;23.378;2022-10-19T02:49:27;6.50;;;2.50;;
6832;SDS011;3454;42.654;23.378;2022-10-19T02:52:07;4.00;;;2.90;;
6832;SDS011;3454;42.654;23.378;2022-10-19T02:54:34;4.13;;;2.70;;
6832;SDS011;3454;42.654;23.378;2022-10-19T02:57:00;4.43;;;3.13;;
6832;SDS011;3454;42.654;23.378;2022-10-19T02:59:32;3.43;;;2.63;;
6832;SDS011;3454;42.654;23.378;2022-10-19T03:01:58;5.77;;;2.93;;
6832;SDS011;3454;42.654;23.378;2022-10-19T03:04:23;3.77;;;2.90;;
6832;SDS011;3454;42.654;23.378;2022-10-19T03:06:48;6.27;;;2.50;;
6832;SDS011;3454;42.654;23.378;2022-10-19T03:09:14;4.07;;;2.20;;
6832;SDS011;3454;42.654;23.378;2022-10-19T03:11:40;4.07;;;3.03;;
6832;SDS011;3454;42.654;23.378;2022-10-19T03:14:05;4.57;;;2.83;;
6832;SDS011;3454;42.654;23.378;2022-10-19T03:16:30;3.90;;;2.90;;
6832;SDS011;3454;42.654;23.378;2022-10-19T03:18:56;3.33;;;2.87;;
6832;SDS011;3454;42.654;23.378;2022-10-19T03:21:21;5.13;;;2.80;;
6832;SDS011;3454;42.654;23.378;2022-10-19T03:23:47;4.90;;;3.13;;
6832;SDS011;3454;42.654;23.378;2022-10-19T03:26:13;4.47;;;2.60;;
6832;SDS011;3454;42.654;23.378;2022-10-19T03:28:40;4.53;;;2.80;;
6832;SDS011;3454;42.654;23.378;2022-10-19T03:31:05;3.97;;;2.70;;
6832;SDS011;3454;42.654;23.378;2022-10-19T03:33:31;6.33;;;2.87;;
6832;SDS011;3454;42.654;23.378;2022-10-19T03:36:15;6.33;;;2.80;;
6832;SDS011;3454;42.654;23.378;2022-10-19T03:38:42;4.67;;;2.80;;
6832;SDS011;3454;42.654;23.378;2022-10-19T03:41:08;5.17;;;3.00;;
6832;SDS011;3454;42.654;23.378;2022-10-19T03:43:33;8.10;;;3.53;;
6832;SDS011;3454;42.654;23.378;2022-10-19T03:45:59;5.63;;;3.40;;
6832;SDS011;3454;42.654;23.378;2022-10-19T03:48:25;4.00;;;2.80;;
6832;SDS011;3454;42.654;23.378;2022-10-19T03:51:04;6.20;;;2.50;;
6832;SDS011;3454;42.654;23.378;2022-10-19T03:53:34;4.70;;;2.67;;
6832;SDS011;3454;42.654;23.378;2022-10-19T03:56:22;5.63;;;3.10;;
6832;SDS011;3454;42.654;23.378;2022-10-19T03:58:48;4.00;;;2.53;;
6832;SDS011;3454;42.654;23.378;2022-10-19T04:03:41;2.70;;;2.47;;
6832;SDS011;3454;42.654;23.378;2022-10-19T04:06:08;8.63;;;3.20;;
6832;SDS011;3454;42.654;23.378;2022-10-19T04:08:43;3.70;;;2.57;;
6832;SDS011;3454;42.654;23.378;2022-10-19T04:11:13;4.67;;;2.93;;
6832;SDS011;3454;42.654;23.378;2022-10-19T04:13:39;6.10;;;2.73;;
6832;SDS011;3454;42.654;23.378;2022-10-19T04:16:05;2.97;;;2.60;;
6832;SDS011;3454;42.654;23.378;2022-10-19T04:18:31;6.07;;;2.40;;
6832;SDS011;3454;42.654;23.378;2022-10-19T04:20:58;4.67;;;2.57;;
6832;SDS011;3454;42.654;23.378;2022-10-19T04:23:28;4.70;;;2.80;;
6832;SDS011;3454;42.654;23.378;2022-10-19T04:26:02;4.17;;;2.57;;
6832;SDS011;3454;42.654;23.378;2022-10-19T04:28:29;4.63;;;3.30;;
6832;SDS011;3454;42.654;23.378;2022-10-19T04:30:56;6.00;;;3.30;;
6832;SDS011;3454;42.654;23.378;2022-10-19T04:33:21;8.27;;;3.07;;
6832;SDS011;3454;42.654;23.378;2022-10-19T04:35:47;7.37;;;4.67;;
6832;SDS011;3454;42.654;23.378;2022-10-19T04:38:12;4.70;;;2.93;;
6832;SDS011;3454;42.654;23.378;2022-10-19T04:40:37;7.07;;;3.20;;
6832;SDS011;3454;42.654;23.378;2022-10-19T04:43:03;6.03;;;3.67;;
6832;SDS011;3454;42.654;23.378;2022-10-19T04:45:29;8.97;;;3.97;;
6832;SDS011;3454;42.654;23.378;2022-10-19T04:47:55;4.47;;;3.27;;
6832;SDS011;3454;42.654;23.378;2022-10-19T04:50:21;9.00;;;4.03;;
6832;SDS011;3454;42.654;23.378;2022-10-19T04:52:50;8.70;;;3.47;;
6832;SDS011;3454;42.654;23.378;2022-10-19T04:55:15;7.07;;;3.60;;
6832;SDS011;3454;42.654;23.378;2022-10-19T04:57:41;5.67;;;3.10;;
6832;SDS011;3454;42.654;23.378;2022-10-19T05:00:07;4.63;;;3.37;;
6832;SDS011;3454;42.654;23.378;2022-10-19T05:02:33;5.33;;;3.47;;
6832;SDS011;3454;42.654;23.378;2022-10-19T05:04:58;9.37;;;4.00;;
6832;SDS011;3454;42.654;23.378;2022-10-19T05:07:24;12.80;;;6.30;;
6832;SDS011;3454;42.654;23.378;2022-10-19T05:09:49;8.63;;;4.27;;
6832;SDS011;3454;42.654;23.378;2022-10-19T05:12:15;7.77;;;4.07;;
6832;SDS011;3454;42.654;23.378;2022-10-19T05:14:40;7.23;;;4.67;;
6832;SDS011;3454;42.654;23.378;2022-10-19T05:17:06;3.87;;;2.80;;
6832;SDS011;3454;42.654;23.378;2022-10-19T05:19:31;14.50;;;4.93;;
6832;SDS011;3454;42.654;23.378;2022-10-19T05:21:56;7.37;;;4.00;;
6832;SDS011;3454;42.654;23.378;2022-10-19T05:24:22;3.80;;;2.87;;
6832;SDS011;3454;42.654;23.378;2022-10-19T05:26:47;6.63;;;3.10;;
6832;SDS011;3454;42.654;23.378;2022-10-19T05:29:13;9.37;;;3.57;;
6832;SDS011;3454;42.654;23.378;2022-10-19T05:31:38;5.77;;;3.60;;
6832;SDS011;3454;42.654;23.378;2022-10-19T05:34:04;7.17;;;3.47;;
6832;SDS011;3454;42.654;23.378;2022-10-19T05:36:33;7.03;;;3.70;;
6832;SDS011;3454;42.654;23.378;2022-10-19T05:39:34;13.50;;;3.80;;
6832;SDS011;3454;42.654;23.378;2022-10-19T05:41:52;8.00;;;2.93;;
6832;SDS011;3454;42.654;23.378;2022-10-19T05:44:19;10.10;;;3.97;;
6832;SDS011;3454;42.654;23.378;2022-10-19T05:46:46;10.93;;;4.67;;
6832;SDS011;3454;42.654;23.378;2022-10-19T05:49:12;5.73;;;3.87;;
6832;SDS011;3454;42.654;23.378;2022-10-19T05:51:39;10.87;;;4.30;;
6832;SDS011;3454;42.654;23.378;2022-10-19T05:54:04;10.27;;;5.03;;
6832;SDS011;3454;42.654;23.378;2022-10-19T05:56:32;12.37;;;6.07;;
6832;SDS011;3454;42.654;23.378;2022-10-19T05:58:59;13.80;;;7.37;;
6832;SDS011;3454;42.654;23.378;2022-10-19T06:01:26;13.10;;;6.57;;
6832;SDS011;3454;42.654;23.378;2022-10-19T06:03:53;15.67;;;7.10;;
6832;SDS011;3454;42.654;23.378;2022-10-19T06:06:21;16.83;;;6.87;;
6832;SDS011;3454;42.654;23.378;2022-10-19T06:08:47;13.17;;;6.87;;
6832;SDS011;3454;42.654;23.378;2022-10-19T06:11:14;13.53;;;7.07;;
6832;SDS011;3454;42.654;23.378;2022-10-19T06:13:42;12.10;;;7.47;;
6832;SDS011;3454;42.654;23.378;2022-10-19T06:16:10;14.40;;;6.77;;
6832;SDS011;3454;42.654;23.378;2022-10-19T06:18:37;19.10;;;7.37;;
6832;SDS011;3454;42.654;23.378;2022-10-19T06:21:04;14.93;;;7.50;;
6832;SDS011;3454;42.654;23.378;2022-10-19T06:23:32;18.37;;;8.93;;
6832;SDS011;3454;42.654;23.378;2022-10-19T06:26:00;17.60;;;8.20;;
6832;SDS011;3454;42.654;23.378;2022-10-19T06:28:34;18.63;;;7.83;;
6832;SDS011;3454;42.654;23.378;2022-10-19T06:31:00;19.87;;;7.33;;
6832;SDS011;3454;42.654;23.378;2022-10-19T06:33:26;15.80;;;7.40;;
6832;SDS011;3454;42.654;23.378;2022-10-19T06:35:54;12.07;;;6.50;;
6832;SDS011;3454;42.654;23.378;2022-10-19T06:38:20;16.13;;;8.13;;
6832;SDS011;3454;42.654;23.378;2022-10-19T06:40:46;13.90;;;7.10;;
6832;SDS011;3454;42.654;23.378;2022-10-19T06:43:13;13.47;;;7.10;;
6832;SDS011;3454;42.654;23.378;2022-10-19T06:45:38;17.40;;;7.17;;
6832;SDS011;3454;42.654;23.378;2022-10-19T06:48:05;12.47;;;6.97;;
6832;SDS011;3454;42.654;23.378;2022-10-19T06:50:31;10.00;;;6.77;;
6832;SDS011;3454;42.654;23.378;2022-10-19T06:52:57;12.90;;;7.60;;
6832;SDS011;3454;42.654;23.378;2022-10-19T06:55:23;11.70;;;6.97;;
6832;SDS011;3454;42.654;23.378;2022-10-19T06:57:48;13.63;;;7.87;;
6832;SDS011;3454;42.654;23.378;2022-10-19T07:00:14;14.37;;;6.93;;
6832;SDS011;3454;42.654;23.378;2022-10-19T07:02:40;17.37;;;8.27;;
6832;SDS011;3454;42.654;23.378;2022-10-19T07:05:06;14.67;;;8.23;;
6832;SDS011;3454;42.654;23.378;2022-10-19T07:07:31;13.73;;;7.50;;
6832;SDS011;3454;42.654;23.378;2022-10-19T07:09:57;16.30;;;8.23;;
6832;SDS011;3454;42.654;23.378;2022-10-19T07:12:22;19.03;;;7.60;;
6832;SDS011;3454;42.654;23.378;2022-10-19T07:14:48;13.83;;;7.60;;
6832;SDS011;3454;42.654;23.378;2022-10-19T07:17:13;14.20;;;7.57;;
6832;SDS011;3454;42.654;23.378;2022-10-19T07:19:39;11.93;;;7.00;;
6832;SDS011;3454;42.654;23.378;2022-10-19T07:22:04;11.77;;;7.50;;
6832;SDS011;3454;42.654;23.378;2022-10-19T07:24:30;14.07;;;7.03;;
6832;SDS011;3454;42.654;23.378;2022-10-19T07:26:55;15.33;;;7.13;;
6832;SDS011;3454;42.654;23.378;2022-10-19T07:29:22;18.00;;;8.83;;
6832;SDS011;3454;42.654;23.378;2022-10-19T07:31:48;17.83;;;8.10;;
6832;SDS011;3454;42.654;23.378;2022-10-19T07:34:13;9.43;;;7.10;;
6832;SDS011;3454;42.654;23.378;2022-10-19T07:36:39;13.73;;;7.77;;
6832;SDS011;3454;42.654;23.378;2022-10-19T07:39:09;14.40;;;8.03;;
6832;SDS011;3454;42.654;23.378;2022-10-19T07:41:36;15.07;;;8.40;;
6832;SDS011;3454;42.654;23.378;2022-10-19T07:44:02;14.87;;;9.37;;
6832;SDS011;3454;42.654;23.378;2022-10-19T07:46:28;27.83;;;9.20;;
6832;SDS011;3454;42.654;23.378;2022-10-19T07:48:57;12.50;;;7.63;;
6832;SDS011;3454;42.654;23.378;2022-10-19T07:51:24;15.70;;;8.47;;
6832;SDS011;3454;42.654;23.378;2022-10-19T07:53:50;15.27;;;9.30;;
6832;SDS011;3454;42.654;23.378;2022-10-19T07:56:16;13.97;;;9.07;;
6832;SDS011;3454;42.654;23.378;2022-10-19T07:58:44;18.93;;;9.70;;
6832;SDS011;3454;42.654;23.378;2022-10-19T08:01:11;15.13;;;9.83;;
6832;SDS011;3454;42.654;23.378;2022-10-19T08:03:38;14.83;;;8.77;;
6832;SDS011;3454;42.654;23.378;2022-10-19T08:06:04;17.53;;;10.17;;
6832;SDS011;3454;42.654;23.378;2022-10-19T08:08:31;16.33;;;9.10;;
6832;SDS011;3454;42.654;23.378;2022-10-19T08:11:01;16.13;;;9.33;;
6832;SDS011;3454;42.654;23.378;2022-10-19T08:13:35;22.83;;;10.20;;
6832;SDS011;3454;42.654;23.378;2022-10-19T08:16:02;18.13;;;10.43;;
6832;SDS011;3454;42.654;23.378;2022-10-19T08:18:27;16.70;;;10.23;;
6832;SDS011;3454;42.654;23.378;2022-10-19T08:20:53;17.55;;;8.77;;
6832;SDS011;3454;42.654;23.378;2022-10-19T08:23:19;17.42;;;9.25;;
6832;SDS011;3454;42.654;23.378;2022-10-19T08:25:44;18.10;;;10.75;;
6832;SDS011;3454;42.654;23.378;2022-10-19T08:28:09;18.35;;;8.98;;
6832;SDS011;3454;42.654;23.378;2022-10-19T08:30:35;18.88;;;9.70;;
6832;SDS011;3454;42.654;23.378;2022-10-19T08:33:02;22.27;;;11.40;;
6832;SDS011;3454;42.654;23.378;2022-10-19T08:35:29;25.27;;;12.85;;
6832;SDS011;3454;42.654;23.378;2022-10-19T08:37:56;22.55;;;11.68;;
6832;SDS011;3454;42.654;23.378;2022-10-19T08:40:23;20.52;;;10.23;;
6832;SDS011;3454;42.654;23.378;2022-10-19T08:45:42;21.52;;;10.38;;
6832;SDS011;3454;42.654;23.378;2022-10-19T08:48:25;21.30;;;10.93;;
6832;SDS011;3454;42.654;23.378;2022-10-19T08:50:53;15.73;;;9.55;;
6832;SDS011;3454;42.654;23.378;2022-10-19T09:01:39;15.43;;;9.23;;
6832;SDS011;3454;42.654;23.378;2022-10-19T09:04:16;15.82;;;7.63;;
6832;SDS011;3454;42.654;23.378;2022-10-19T09:07:29;19.15;;;8.38;;
6832;SDS011;3454;42.654;23.378;2022-10-19T09:09:34;14.70;;;7.63;;
6832;SDS011;3454;42.654;23.378;2022-10-19T09:12:06;10.15;;;5.90;;
6832;SDS011;3454;42.654;23.378;2022-10-19T09:14:44;21.58;;;6.38;;
6832;SDS011;3454;42.654;23.378;2022-10-19T09:17:22;6.82;;;4.85;;
6832;SDS011;3454;42.654;23.378;2022-10-19T09:19:49;7.18;;;4.80;;
6832;SDS011;3454;42.654;23.378;2022-10-19T09:22:18;9.80;;;4.07;;
6832;SDS011;3454;42.654;23.378;2022-10-19T09:27:21;8.23;;;3.92;;
6832;SDS011;3454;42.654;23.378;2022-10-19T09:29:57;10.77;;;4.03;;
6832;SDS011;3454;42.654;23.378;2022-10-19T09:35:01;9.65;;;4.07;;
6832;SDS011;3454;42.654;23.378;2022-10-19T09:37:47;6.53;;;3.90;;
6832;SDS011;3454;42.654;23.378;2022-10-19T09:40:22;8.00;;;4.13;;
6832;SDS011;3454;42.654;23.378;2022-10-19T09:42:49;8.20;;;4.07;;
6832;SDS011;3454;42.654;23.378;2022-10-19T09:50:58;8.10;;;3.40;;
6832;SDS011;3454;42.654;23.378;2022-10-19T09:53:25;4.13;;;3.17;;
6832;SDS011;3454;42.654;23.378;2022-10-19T09:55:57;12.27;;;3.65;;
6832;SDS011;3454;42.654;23.378;2022-10-19T09:58:27;8.25;;;3.25;;
6832;SDS011;3454;42.654;23.378;2022-10-19T10:00:54;4.75;;;3.22;;
6832;SDS011;3454;42.654;23.378;2022-10-19T10:06:02;6.05;;;2.95;;
6832;SDS011;3454;42.654;23.378;2022-10-19T10:08:31;6.45;;;3.20;;
6832;SDS011;3454;42.654;23.378;2022-10-19T10:13:36;3.90;;;2.65;;
6832;SDS011;3454;42.654;23.378;2022-10-19T10:16:05;4.70;;;2.70;;
6832;SDS011;3454;42.654;23.378;2022-10-19T10:18:37;7.57;;;3.20;;
6832;SDS011;3454;42.654;23.378;2022-10-19T10:21:47;5.18;;;2.42;;
6832;SDS011;3454;42.654;23.378;2022-10-19T10:26:45;7.75;;;3.33;;
6832;SDS011;3454;42.654;23.378;2022-10-19T10:29:20;4.85;;;3.10;;
6832;SDS011;3454;42.654;23.378;2022-10-19T10:36:59;5.53;;;3.20;;
6832;SDS011;3454;42.654;23.378;2022-10-19T10:39:27;5.38;;;3.28;;
6832;SDS011;3454;42.654;23.378;2022-10-19T10:41:53;4.78;;;3.60;;
6832;SDS011;3454;42.654;23.378;2022-10-19T10:44:22;6.45;;;3.20;;
6832;SDS011;3454;42.654;23.378;2022-10-19T10:46:54;7.50;;;3.30;;
6832;SDS011;3454;42.654;23.378;2022-10-19T10:49:23;3.22;;;2.78;;
6832;SDS011;3454;42.654;23.378;2022-10-19T10:51:53;4.80;;;3.63;;
6832;SDS011;3454;42.654;23.378;2022-10-19T10:54:22;5.70;;;3.50;;
6832;SDS011;3454;42.654;23.378;2022-10-19T10:56:58;10.55;;;3.65;;
6832;SDS011;3454;42.654;23.378;2022-10-19T10:59:31;7.07;;;3.25;;
6832;SDS011;3454;42.654;23.378;2022-10-19T11:02:02;11.02;;;3.70;;
6832;SDS011;3454;42.654;23.378;2022-10-19T11:04:33;7.55;;;4.65;;
6832;SDS011;3454;42.654;23.378;2022-10-19T11:07:19;5.95;;;2.78;;
6832;SDS011;3454;42.654;23.378;2022-10-19T11:09:57;4.70;;;3.05;;
6832;SDS011;3454;42.654;23.378;2022-10-19T11:12:37;4.22;;;2.92;;
6832;SDS011;3454;42.654;23.378;2022-10-19T11:17:50;7.10;;;3.47;;
6832;SDS011;3454;42.654;23.378;2022-10-19T11:20:19;5.50;;;3.08;;
6832;SDS011;3454;42.654;23.378;2022-10-19T11:22:49;10.52;;;3.38;;
6832;SDS011;3454;42.654;23.378;2022-10-19T11:25:30;5.13;;;3.10;;
6832;SDS011;3454;42.654;23.378;2022-10-19T11:30:40;6.50;;;3.00;;
6832;SDS011;3454;42.654;23.378;2022-10-19T11:33:21;4.63;;;3.13;;
6832;SDS011;3454;42.654;23.378;2022-10-19T11:35:58;7.03;;;2.90;;
6832;SDS011;3454;42.654;23.378;2022-10-19T11:41:33;6.32;;;2.63;;
6832;SDS011;3454;42.654;23.378;2022-10-19T11:46:56;7.20;;;2.63;;
6832;SDS011;3454;42.654;23.378;2022-10-19T11:52:29;9.20;;;2.85;;
6832;SDS011;3454;42.654;23.378;2022-10-19T12:00:37;7.47;;;2.92;;
6832;SDS011;3454;42.654;23.378;2022-10-19T12:08:54;4.30;;;3.13;;
6832;SDS011;3454;42.654;23.378;2022-10-19T12:11:37;7.75;;;3.03;;
6832;SDS011;3454;42.654;23.378;2022-10-19T12:14:29;4.85;;;3.05;;
6832;SDS011;3454;42.654;23.378;2022-10-19T12:16:58;4.68;;;2.88;;
6832;SDS011;3454;42.654;23.378;2022-10-19T12:19:35;5.82;;;3.03;;
6832;SDS011;3454;42.654;23.378;2022-10-19T12:22:05;8.48;;;3.17;;
6832;SDS011;3454;42.654;23.378;2022-10-19T12:24:37;6.60;;;2.90;;
6832;SDS011;3454;42.654;23.378;2022-10-19T12:27:02;3.90;;;2.90;;
6832;SDS011;3454;42.654;23.378;2022-10-19T12:29:33;9.70;;;2.72;;
6832;SDS011;3454;42.654;23.378;2022-10-19T12:32:03;6.40;;;2.80;;
6832;SDS011;3454;42.654;23.378;2022-10-19T12:45:32;5.25;;;2.53;;
6832;SDS011;3454;42.654;23.378;2022-10-19T12:48:14;6.70;;;3.00;;
6832;SDS011;3454;42.654;23.378;2022-10-19T12:53:24;7.93;;;3.83;;
6832;SDS011;3454;42.654;23.378;2022-10-19T12:56:06;5.68;;;2.95;;
6832;SDS011;3454;42.654;23.378;2022-10-19T12:58:35;6.30;;;3.03;;
6832;SDS011;3454;42.654;23.378;2022-10-19T13:01:52;5.13;;;2.75;;
6832;SDS011;3454;42.654;23.378;2022-10-19T13:04:05;5.38;;;3.10;;
6832;SDS011;3454;42.654;23.378;2022-10-19T13:06:43;5.88;;;3.08;;
6832;SDS011;3454;42.654;23.378;2022-10-19T13:22:46;6.93;;;2.80;;
6832;SDS011;3454;42.654;23.378;2022-10-19T13:27:48;8.27;;;2.75;;
6832;SDS011;3454;42.654;23.378;2022-10-19T13:38:31;9.85;;;3.40;;
6832;SDS011;3454;42.654;23.378;2022-10-19T13:41:26;10.77;;;4.38;;
6832;SDS011;3454;42.654;23.378;2022-10-19T13:49:56;6.75;;;3.72;;
6832;SDS011;3454;42.654;23.378;2022-10-19T13:55:45;5.25;;;3.25;;
6832;SDS011;3454;42.654;23.378;2022-10-19T13:58:30;5.05;;;3.50;;
6832;SDS011;3454;42.654;23.378;2022-10-19T14:12:36;6.80;;;3.67;;
6832;SDS011;3454;42.654;23.378;2022-10-19T14:15:18;5.28;;;3.55;;
6832;SDS011;3454;42.654;23.378;2022-10-19T14:17:56;10.30;;;3.75;;
6832;SDS011;3454;42.654;23.378;2022-10-19T14:20:25;7.13;;;3.28;;
6832;SDS011;3454;42.654;23.378;2022-10-19T14:22:51;4.68;;;3.13;;
6832;SDS011;3454;42.654;23.378;2022-10-19T14:27:49;13.02;;;3.03;;
6832;SDS011;3454;42.654;23.378;2022-10-19T14:30:35;5.35;;;3.13;;
6832;SDS011;3454;42.654;23.378;2022-10-19T14:33:09;5.72;;;2.78;;
6832;SDS011;3454;42.654;23.378;2022-10-19T14:35:39;5.47;;;3.50;;
6832;SDS011;3454;42.654;23.378;2022-10-19T14:38:13;7.80;;;3.35;;
6832;SDS011;3454;42.654;23.378;2022-10-19T14:40:42;7.28;;;3.70;;
6832;SDS011;3454;42.654;23.378;2022-10-19T14:43:19;7.78;;;3.42;;
6832;SDS011;3454;42.654;23.378;2022-10-19T14:48:44;9.93;;;3.95;;
6832;SDS011;3454;42.654;23.378;2022-10-19T14:51:22;7.47;;;3.60;;
6832;SDS011;3454;42.654;23.378;2022-10-19T14:54:02;6.20;;;3.90;;
6832;SDS011;3454;42.654;23.378;2022-10-19T14:59:02;6.07;;;3.75;;
6832;SDS011;3454;42.654;23.378;2022-10-19T15:01:36;9.50;;;4.82;;
6832;SDS011;3454;42.654;23.378;2022-10-19T15:04:02;7.03;;;3.95;;
6832;SDS011;3454;42.654;23.378;2022-10-19T15:06:29;7.00;;;4.45;;
6832;SDS011;3454;42.654;23.378;2022-10-19T15:09:03;6.05;;;3.70;;
6832;SDS011;3454;42.654;23.378;2022-10-19T15:11:39;11.25;;;4.50;;
6832;SDS011;3454;42.654;23.378;2022-10-19T15:14:22;8.70;;;4.00;;
6832;SDS011;3454;42.654;23.378;2022-10-19T15:16:59;9.98;;;5.25;;
6832;SDS011;3454;42.654;23.378;2022-10-19T15:19:29;7.60;;;4.85;;
6832;SDS011;3454;42.654;23.378;2022-10-19T15:24:38;5.72;;;3.75;;
6832;SDS011;3454;42.654;23.378;2022-10-19T15:27:17;8.43;;;4.20;;
6832;SDS011;3454;42.654;23.378;2022-10-19T15:29:54;10.77;;;3.97;;
6832;SDS011;3454;42.654;23.378;2022-10-19T15:32:22;8.00;;;4.10;;
6832;SDS011;3454;42.654;23.378;2022-10-19T15:34:49;7.35;;;4.47;;
6832;SDS011;3454;42.654;23.378;2022-10-19T15:37:19;7.93;;;4.10;;
6832;SDS011;3454;42.654;23.378;2022-10-19T15:39:46;12.80;;;4.40;;
6832;SDS011;3454;42.654;23.378;2022-10-19T15:42:54;6.30;;;4.22;;
6832;SDS011;3454;42.654;23.378;2022-10-19T15:48:14;6.05;;;4.68;;
6832;SDS011;3454;42.654;23.378;2022-10-19T15:50:49;7.00;;;4.55;;
6832;SDS011;3454;42.654;23.378;2022-10-19T15:53:16;11.02;;;4.70;;
6832;SDS011;3454;42.654;23.378;2022-10-19T15:55:42;10.82;;;4.40;;
6832;SDS011;3454;42.654;23.378;2022-10-19T15:58:11;7.75;;;4.90;;
6832;SDS011;3454;42.654;23.378;2022-10-19T16:00:37;24.30;;;5.35;;
6832;SDS011;3454;42.654;23.378;2022-10-19T16:03:03;7.18;;;4.97;;
6832;SDS011;3454;42.654;23.378;2022-10-19T16:05:29;6.82;;;4.88;;
6832;SDS011;3454;42.654;23.378;2022-10-19T16:07:55;12.90;;;5.35;;
6832;SDS011;3454;42.654;23.378;2022-10-19T16:10:22;7.13;;;4.80;;
6832;SDS011;3454;42.654;23.378;2022-10-19T16:12:50;9.98;;;5.15;;
6832;SDS011;3454;42.654;23.378;2022-10-19T16:15:17;6.35;;;4.97;;
6832;SDS011;3454;42.654;23.378;2022-10-19T16:17:48;6.97;;;5.68;;
6832;SDS011;3454;42.654;23.378;2022-10-19T16:20:17;10.57;;;5.95;;
6832;SDS011;3454;42.654;23.378;2022-10-19T16:22:43;8.88;;;5.78;;
6832;SDS011;3454;42.654;23.378;2022-10-19T16:25:10;10.10;;;5.55;;
6832;SDS011;3454;42.654;23.378;2022-10-19T16:27:35;13.82;;;5.75;;
6832;SDS011;3454;42.654;23.378;2022-10-19T16:30:01;7.78;;;5.50;;
6832;SDS011;3454;42.654;23.378;2022-10-19T16:32:27;9.45;;;6.18;;
6832;SDS011;3454;42.654;23.378;2022-10-19T16:34:52;10.32;;;5.88;;
6832;SDS011;3454;42.654;23.378;2022-10-19T16:37:18;7.82;;;5.45;;
6832;SDS011;3454;42.654;23.378;2022-10-19T16:39:43;12.52;;;5.88;;
6832;SDS011;3454;42.654;23.378;2022-10-19T16:42:08;9.80;;;5.97;;
6832;SDS011;3454;42.654;23.378;2022-10-19T16:44:34;10.40;;;6.55;;
6832;SDS011;3454;42.654;23.378;2022-10-19T16:46:59;8.77;;;5.60;;
6832;SDS011;3454;42.654;23.378;2022-10-19T16:49:25;6.47;;;5.00;;
6832;SDS011;3454;42.654;23.378;2022-10-19T16:51:51;10.73;;;6.25;;
6832;SDS011;3454;42.654;23.378;2022-10-19T16:54:17;10.85;;;5.32;;
6832;SDS011;3454;42.654;23.378;2022-10-19T16:56:43;7.65;;;5.68;;
6832;SDS011;3454;42.654;23.378;2022-10-19T16:59:11;8.05;;;5.03;;
6832;SDS011;3454;42.654;23.378;2022-10-19T17:01:38;7.53;;;5.95;;
6832;SDS011;3454;42.654;23.378;2022-10-19T17:04:05;10.20;;;6.03;;
6832;SDS011;3454;42.654;23.378;2022-10-19T17:06:31;11.13;;;5.70;;
6832;SDS011;3454;42.654;23.378;2022-10-19T17:08:57;8.45;;;5.88;;
6832;SDS011;3454;42.654;23.378;2022-10-19T17:11:27;11.90;;;6.57;;
6832;SDS011;3454;42.654;23.378;2022-10-19T17:14:01;13.52;;;6.20;;
6832;SDS011;3454;42.654;23.378;2022-10-19T17:16:30;10.48;;;6.85;;
6832;SDS011;3454;42.654;23.378;2022-10-19T17:18:57;9.40;;;6.03;;
6832;SDS011;3454;42.654;23.378;2022-10-19T17:21:25;9.45;;;6.28;;
6832;SDS011;3454;42.654;23.378;2022-10-19T17:23:56;10.57;;;6.20;;
6832;SDS011;3454;42.654;23.378;2022-10-19T17:26:25;9.98;;;6.10;;
6832;SDS011;3454;42.654;23.378;2022-10-19T17:28:52;9.32;;;6.05;;
6832;SDS011;3454;42.654;23.378;2022-10-19T17:31:19;8.65;;;6.05;;
6832;SDS011;3454;42.654;23.378;2022-10-19T17:33:44;10.43;;;6.28;;
6832;SDS011;3454;42.654;23.378;2022-10-19T17:36:14;8.48;;;5.93;;
6832;SDS011;3454;42.654;23.378;2022-10-19T17:38:42;8.13;;;6.30;;
6832;SDS011;3454;42.654;23.378;2022-10-19T17:41:09;11.63;;;6.15;;
6832;SDS011;3454;42.654;23.378;2022-10-19T17:43:37;10.65;;;6.38;;
6832;SDS011;3454;42.654;23.378;2022-10-19T17:46:04;9.65;;;6.57;;
6832;SDS011;3454;42.654;23.378;2022-10-19T17:48:32;12.20;;;6.50;;
6832;SDS011;3454;42.654;23.378;2022-10-19T17:50:59;7.63;;;5.80;;